Terminal Aerodrome Forecast
Issued by NWS

Home | Current Version | Previous Version | Text Only | Print | Product List | Glossary On
Versions: 1 2 3 4 5 6 7 8 9 10 11 12 13 14 15 16 17 18 19
000
FTUS41 KCAR 142300
TAFFVE
TAF
KFVE 142320Z 1500/1524 33005KT P6SM BKN025
     FM150300 32004KT P6SM SCT250
     FM150700 VRB03KT P6SM SCT008
     FM151500 25004KT P6SM SCT250=

USA.gov is the U.S. government's official web portal to all federal, state and local government web resources and services.